Time;durP1;ratioP1;P1;durP2;ratioP2;P2;SDS_P1;SDS_P2;PMS_P1;PMS_P2;Temp;Humidity;BMP_temperature;BMP_pressure;BME280_temperature;BME280_humidity;BME280_pressure;Samples;Min_cycle;Max_cycle;Signal;HPM_P1;HPM_P2
2022/06/10 00:01:41;;;;;;;2.33;2.13;;;21.40;61.90;22.60;101293.00;;;;4987897;28;20199;-45
2022/06/10 00:04:07;;;;;;;2.20;2.00;;;21.40;61.90;22.60;101305.00;;;;4987632;28;20173;-43
2022/06/10 00:06:33;;;;;;;2.60;2.40;;;21.40;61.80;22.60;101305.00;;;;4987686;28;20179;-43
2022/06/10 00:08:58;;;;;;;2.30;2.10;;;21.30;62.00;22.60;101306.00;;;;4987617;28;20207;-45
2022/06/10 00:11:24;;;;;;;2.83;2.13;;;21.30;62.10;22.60;101297.00;;;;4987948;28;20203;-44
2022/06/10 00:13:50;;;;;;;2.23;2.03;;;21.40;62.20;22.60;101299.00;;;;4988763;28;20172;-43
2022/06/10 00:16:18;;;;;;;2.50;2.30;;;21.30;62.10;22.60;101305.00;;;;4992550;28;20175;-43
2022/06/10 00:18:43;;;;;;;2.80;2.30;;;21.30;62.10;22.50;101304.00;;;;4994618;28;20180;-44
2022/06/10 00:21:11;;;;;;;2.40;2.20;;;21.30;62.10;22.50;101306.00;;;;4988658;28;20246;-44
2022/06/10 00:23:37;;;;;;;2.67;2.40;;;21.30;62.30;22.50;101296.00;;;;4986559;28;20274;-44
2022/06/10 00:26:03;;;;;;;2.50;2.30;;;21.30;62.30;22.50;101305.00;;;;4985904;28;20259;-44
2022/06/10 00:28:29;;;;;;;2.63;2.20;;;21.30;62.30;22.50;101298.00;;;;4986761;28;20196;-44
2022/06/10 00:30:55;;;;;;;2.43;2.20;;;21.20;62.20;22.50;101298.00;;;;4987252;28;20175;-44
2022/06/10 00:33:21;;;;;;;2.50;2.30;;;21.30;62.50;22.50;101292.00;;;;4987321;28;20282;-44
2022/06/10 00:35:47;;;;;;;2.37;2.17;;;21.20;62.50;22.40;101300.00;;;;4987301;28;20234;-43
2022/06/10 00:38:12;;;;;;;2.27;2.07;;;21.20;62.50;22.40;101293.00;;;;4986919;28;20533;-44
2022/06/10 00:40:42;;;;;;;3.17;2.37;;;21.20;62.50;22.40;101285.00;;;;4985700;28;20637;-45
2022/06/10 00:43:16;;;;;;;2.37;2.17;;;21.20;62.40;22.40;101288.00;;;;4987103;28;20199;-44
2022/06/10 00:45:58;;;;;;;2.53;2.33;;;21.20;62.50;22.40;101293.00;;;;4987220;28;20176;-44
2022/06/10 00:48:49;;;;;;;2.63;2.20;;;21.20;62.40;22.20;101296.00;;;;4986445;28;20192;-44
2022/06/10 00:51:51;;;;;;;2.70;2.40;;;21.20;62.50;22.40;101291.00;;;;4985645;28;20549;-42
2022/06/10 00:54:35;;;;;;;2.57;2.37;;;21.20;62.50;22.30;101298.00;;;;4986655;28;20542;-44
2022/06/10 00:57:06;;;;;;;2.70;2.33;;;21.10;62.40;22.30;101296.00;;;;4970832;28;20190;-42
2022/06/10 00:59:41;;;;;;;2.83;2.40;;;21.10;62.40;22.30;101293.00;;;;4985222;28;20184;-44
2022/06/10 01:02:23;;;;;;;2.40;2.20;;;21.10;62.40;22.20;101292.00;;;;4985436;28;20278;-43
2022/06/10 01:04:48;;;;;;;2.10;2.00;;;21.10;62.50;22.20;101287.00;;;;4989595;28;20180;-44
2022/06/10 01:07:20;;;;;;;2.77;2.30;;;21.10;62.40;22.20;101293.00;;;;4986808;28;20319;-43
2022/06/10 01:09:46;;;;;;;2.30;2.10;;;21.10;62.40;22.20;101288.00;;;;4985387;28;20199;-43
2022/06/10 01:12:27;;;;;;;2.20;2.00;;;21.10;62.40;22.20;101293.00;;;;4985700;28;20198;-43
2022/06/10 01:15:35;;;;;;;2.40;2.20;;;21.10;62.40;22.20;101279.00;;;;4985659;28;20156;-45
2022/06/10 01:18:37;;;;;;;2.40;2.20;;;21.00;62.30;22.10;101295.00;;;;4985247;28;20564;-43
2022/06/10 01:21:47;;;;;;;2.40;2.20;;;21.00;62.30;22.10;101296.00;;;;4986627;28;20617;-44
2022/06/10 01:24:52;;;;;;;2.93;2.20;;;21.00;62.40;22.10;101290.00;;;;4986492;28;20283;-43
2022/06/10 01:28:10;;;;;;;2.40;2.20;;;21.00;62.30;22.10;101301.00;;;;4986444;28;20203;-43
2022/06/10 01:30:59;;;;;;;2.97;2.20;;;21.00;62.40;22.00;101295.00;;;;4986082;28;20184;-44
2022/06/10 01:33:43;;;;;;;3.10;2.30;;;21.00;62.30;22.00;101286.00;;;;4985609;28;20192;-44
2022/06/10 01:36:13;;;;;;;2.43;2.23;;;20.90;62.20;22.00;101290.00;;;;4985963;28;20164;-44
2022/06/10 01:39:08;;;;;;;2.97;2.50;;;20.90;62.20;22.00;101296.00;;;;4985924;28;20535;-44
2022/06/10 01:42:29;;;;;;;2.40;2.10;;;21.00;62.20;22.00;101294.00;;;;4985688;28;20166;-42
2022/06/10 01:45:31;;;;;;;2.77;2.20;;;20.90;62.20;21.90;101300.00;;;;4972461;28;20175;-43
2022/06/10 01:48:05;;;;;;;2.50;2.30;;;20.90;62.20;21.90;101306.00;;;;4986734;28;20164;-44
2022/06/10 01:50:49;;;;;;;2.40;2.20;;;20.90;62.20;21.90;101303.00;;;;4986846;28;20168;-45
2022/06/10 01:53:31;;;;;;;2.43;2.20;;;20.90;61.90;21.90;101306.00;;;;4985548;28;20218;-44
2022/06/10 01:56:27;;;;;;;2.93;2.37;;;20.80;61.90;21.90;101307.00;;;;4985459;28;20187;-44
2022/06/10 01:59:10;;;;;;;2.40;2.20;;;20.90;61.90;21.90;101304.00;;;;4985156;28;20172;-44
2022/06/10 02:01:39;;;;;;;2.40;2.20;;;20.80;61.90;21.80;101307.00;;;;4986190;28;20207;-42
2022/06/10 02:04:23;;;;;;;2.40;2.20;;;20.80;62.00;21.80;101294.00;;;;4993151;28;20172;-43
2022/06/10 02:06:54;;;;;;;2.40;2.20;;;20.80;61.80;21.80;101293.00;;;;4994182;28;20240;-43
2022/06/10 02:09:28;;;;;;;2.27;2.10;;;20.80;61.90;21.80;101308.00;;;;4988960;28;20206;-45
2022/06/10 02:11:58;;;;;;;2.53;2.30;;;20.80;62.10;21.80;101303.00;;;;4985593;28;20992;-44
2022/06/10 02:14:32;;;;;;;2.30;2.10;;;20.80;61.90;21.80;101286.00;;;;4985918;28;20168;-44
2022/06/10 02:16:58;;;;;;;2.40;2.20;;;20.80;61.80;21.80;101309.00;;;;4986281;28;20526;-44
2022/06/10 02:19:35;;;;;;;2.50;2.30;;;20.70;62.00;21.80;101304.00;;;;4988655;28;20179;-44
2022/06/10 02:22:17;;;;;;;2.63;2.30;;;20.70;61.90;21.80;101318.00;;;;4988698;28;20635;-44
2022/06/10 02:24:45;;;;;;;2.50;2.30;;;20.70;62.00;21.80;101311.00;;;;4995770;28;20174;-44
2022/06/10 02:27:18;;;;;;;3.23;2.23;;;20.70;62.00;21.80;101312.00;;;;4999186;28;20272;-42
2022/06/10 02:30:05;;;;;;;2.90;2.50;;;20.70;62.20;21.80;101325.00;;;;4994339;28;20623;-43
2022/06/10 02:32:31;;;;;;;3.90;2.40;;;20.70;62.00;21.80;101305.00;;;;4990096;28;20205;-44
2022/06/10 02:34:57;;;;;;;2.80;2.20;;;20.70;62.00;21.80;101312.00;;;;4988535;28;20179;-44
2022/06/10 02:37:45;;;;;;;4.30;2.10;;;20.70;62.00;21.80;101327.00;;;;4988457;28;20178;-44
2022/06/10 02:40:29;;;;;;;3.23;2.20;;;20.70;62.00;21.70;101315.00;;;;4989812;28;20177;-44
2022/06/10 02:43:48;;;;;;;2.40;2.20;;;20.60;61.90;21.70;101328.00;;;;4988712;28;20204;-44
2022/06/10 02:46:26;;;;;;;2.40;2.20;;;20.60;61.90;21.70;101321.00;;;;4981688;28;20273;-44
2022/06/10 02:49:12;;;;;;;3.43;2.20;;;20.60;61.90;21.70;101331.00;;;;4984773;28;20815;-44
2022/06/10 02:51:38;;;;;;;3.13;2.40;;;20.60;62.00;21.60;101328.00;;;;4987281;28;20314;-45
2022/06/10 02:54:10;;;;;;;3.37;2.20;;;20.60;61.90;21.60;101325.00;;;;4972168;28;20859;-44
2022/06/10 02:56:36;;;;;;;3.03;2.20;;;20.60;61.90;21.60;101329.00;;;;4987891;28;20169;-44
2022/06/10 03:02:22;;;;;;;2.40;2.13;;;20.60;62.00;21.60;101342.00;;;;4987938;28;20681;-44
2022/06/10 03:05:16;;;;;;;2.60;2.33;;;20.50;61.90;21.60;101333.00;;;;4988711;28;20157;-45
2022/06/10 03:07:58;;;;;;;2.40;2.20;;;20.50;62.00;21.60;101327.00;;;;4987395;28;20300;-43
2022/06/10 03:10:37;;;;;;;2.00;1.90;;;20.50;62.00;21.50;101338.00;;;;4971873;28;20192;-45
2022/06/10 03:13:40;;;;;;;3.10;2.17;;;20.50;61.90;21.60;101337.00;;;;4972879;28;20245;-44
2022/06/10 03:16:53;;;;;;;3.80;2.20;;;20.50;62.00;21.60;101355.00;;;;4988183;28;20174;-43
2022/06/10 03:19:46;;;;;;;2.23;2.03;;;20.50;62.00;21.50;101345.00;;;;5007476;28;20190;-44
2022/06/10 03:22:17;;;;;;;2.30;2.10;;;20.50;62.00;21.50;101347.00;;;;4988525;28;20796;-44
2022/06/10 03:25:19;;;;;;;2.60;2.40;;;20.50;62.10;21.50;101349.00;;;;4988466;28;20173;-42
2022/06/10 03:28:19;;;;;;;2.67;2.30;;;20.50;62.00;21.50;101356.00;;;;4972812;28;20173;-46
2022/06/10 03:31:21;;;;;;;3.27;2.37;;;20.50;62.30;21.40;101289.00;;;;4988425;28;20192;-44
2022/06/10 03:33:53;;;;;;;2.53;2.13;;;20.50;62.30;21.40;101332.00;;;;4973515;28;20322;-43
2022/06/10 03:36:23;;;;;;;3.90;2.20;;;20.50;62.30;21.40;101349.00;;;;4971827;28;20178;-43
2022/06/10 03:38:50;;;;;;;3.53;2.30;;;20.40;62.20;21.40;101349.00;;;;4986879;28;20647;-43
2022/06/10 03:42:08;;;;;;;3.50;2.00;;;20.50;62.30;21.40;101344.00;;;;4987045;28;20173;-44
2022/06/10 03:44:33;;;;;;;2.67;2.30;;;20.40;62.20;21.40;101349.00;;;;4988294;28;20243;-44
2022/06/10 03:46:59;;;;;;;3.97;2.17;;;20.40;62.30;21.50;101350.00;;;;4987884;28;20178;-43
2022/06/10 03:49:54;;;;;;;3.57;2.30;;;20.40;62.30;21.50;101361.00;;;;4987531;28;20228;-45
2022/06/10 03:52:23;;;;;;;3.27;2.10;;;20.40;62.20;21.40;101364.00;;;;4973640;28;20594;-45
2022/06/10 03:54:49;;;;;;;2.30;2.00;;;20.30;62.10;21.50;101365.00;;;;4970957;28;20567;-44
2022/06/10 03:57:17;;;;;;;4.63;2.17;;;20.30;62.10;21.40;101373.00;;;;4987498;28;20300;-44
2022/06/10 03:59:43;;;;;;;2.87;2.20;;;20.30;62.10;21.40;101380.00;;;;4987814;28;20172;-43
2022/06/10 04:02:09;;;;;;;3.53;2.30;;;20.30;62.10;21.40;101383.00;;;;4987823;28;20196;-44
2022/06/10 04:04:35;;;;;;;4.20;2.20;;;20.30;62.00;21.40;101381.00;;;;4987356;28;20178;-44
2022/06/10 04:07:00;;;;;;;3.77;2.17;;;20.30;62.00;21.40;101379.00;;;;4987329;28;20158;-43
2022/06/10 04:09:26;;;;;;;4.43;2.23;;;20.30;62.90;21.40;101384.00;;;;4987634;28;20280;-45
2022/06/10 04:11:52;;;;;;;3.47;2.37;;;20.30;62.30;21.40;101383.00;;;;4987756;28;20198;-43
2022/06/10 04:14:18;;;;;;;2.30;2.10;;;20.30;62.30;21.40;101383.00;;;;4987497;28;20565;-43
2022/06/10 04:16:43;;;;;;;2.90;2.17;;;20.30;62.30;21.40;101382.00;;;;4987786;28;20728;-43
2022/06/10 04:19:11;;;;;;;4.00;2.10;;;20.30;62.10;21.40;101380.00;;;;4987210;28;20184;-42
2022/06/10 04:21:37;;;;;;;2.70;2.30;;;20.30;62.20;21.40;101387.00;;;;4986456;28;20694;-44
2022/06/10 04:24:04;;;;;;;2.30;2.10;;;20.20;62.20;21.40;101394.00;;;;4987600;28;20289;-43
2022/06/10 04:26:29;;;;;;;4.50;2.20;;;20.20;62.20;21.40;101388.00;;;;4987138;28;20252;-43
2022/06/10 04:28:56;;;;;;;3.47;2.13;;;20.20;62.20;21.30;101395.00;;;;4987212;28;20246;-44
2022/06/10 04:31:22;;;;;;;3.70;2.00;;;20.20;62.20;21.30;101394.00;;;;4987235;28;20871;-43
2022/06/10 04:33:48;;;;;;;3.87;2.27;;;20.20;62.20;21.30;101396.00;;;;4986880;28;20209;-42
2022/06/10 04:36:16;;;;;;;4.30;2.30;;;20.20;62.20;21.30;101397.00;;;;4986840;28;20157;-42
2022/06/10 04:38:42;;;;;;;3.43;2.23;;;20.20;62.20;21.30;101395.00;;;;4985838;28;20312;-43
2022/06/10 04:41:07;;;;;;;3.47;2.23;;;20.20;62.20;21.30;101400.00;;;;4984781;28;20732;-43
2022/06/10 04:43:34;;;;;;;3.60;2.40;;;20.20;62.20;21.30;101404.00;;;;4987056;28;20207;-43
2022/06/10 04:46:01;;;;;;;6.93;2.50;;;20.20;62.20;21.30;101403.00;;;;4986582;28;20180;-42
2022/06/10 04:48:27;;;;;;;5.80;2.20;;;20.20;62.20;21.30;101397.00;;;;4986663;28;20482;-43
2022/06/10 04:50:53;;;;;;;4.57;2.40;;;20.10;62.00;21.10;101396.00;;;;4986412;28;20176;-43
2022/06/10 04:53:19;;;;;;;4.60;2.23;;;20.20;62.10;21.20;101395.00;;;;4986720;28;20196;-43
2022/06/10 04:55:45;;;;;;;4.90;2.17;;;20.10;62.90;21.20;101406.00;;;;4985902;28;20627;-43
2022/06/10 04:58:11;;;;;;;5.77;2.30;;;20.10;62.20;21.20;101399.00;;;;4985969;28;20228;-44
2022/06/10 05:00:39;;;;;;;5.00;2.30;;;20.10;62.30;21.20;101404.00;;;;4970353;28;20175;-43
2022/06/10 05:03:06;;;;;;;3.43;2.33;;;20.10;62.30;21.30;101406.00;;;;4967424;28;20185;-42
2022/06/10 05:05:32;;;;;;;6.77;2.50;;;20.10;62.30;21.20;101406.00;;;;4967575;28;20316;-43
2022/06/10 05:07:58;;;;;;;6.37;2.60;;;20.10;62.40;21.20;101393.00;;;;4967212;28;20227;-42
2022/06/10 05:10:25;;;;;;;6.23;2.37;;;20.10;62.30;21.20;101402.00;;;;4967391;28;20173;-42
2022/06/10 05:12:50;;;;;;;5.00;2.30;;;20.10;62.30;21.20;101401.00;;;;4966276;28;20200;-44
2022/06/10 05:15:20;;;;;;;5.23;2.30;;;20.10;62.40;21.20;101404.00;;;;4968778;28;20173;-44
2022/06/10 05:17:45;;;;;;;3.83;2.37;;;20.10;62.40;21.20;101404.00;;;;4967395;28;20260;-43
2022/06/10 05:20:16;;;;;;;5.70;2.60;;;20.00;62.20;21.20;101393.00;;;;4969004;28;20229;-44
2022/06/10 05:22:41;;;;;;;3.13;2.30;;;20.00;62.30;21.20;101404.00;;;;4965964;28;20213;-45
2022/06/10 05:25:08;;;;;;;3.67;2.30;;;20.10;62.50;21.20;101404.00;;;;4967101;28;20180;-44
2022/06/10 05:27:33;;;;;;;4.33;2.50;;;20.00;62.30;21.20;101401.00;;;;4967494;28;20565;-44
2022/06/10 05:29:59;;;;;;;4.60;2.50;;;20.10;62.40;21.20;101400.00;;;;4967806;28;20214;-42
2022/06/10 05:32:25;;;;;;;3.37;2.10;;;20.10;62.30;21.20;101406.00;;;;4972577;28;20199;-42
2022/06/10 05:34:51;;;;;;;3.83;2.33;;;20.00;62.20;21.20;101411.00;;;;4966844;28;20261;-42
2022/06/10 05:37:20;;;;;;;3.73;2.30;;;20.00;62.30;21.20;101406.00;;;;4966810;28;20250;-42
2022/06/10 05:39:45;;;;;;;2.67;2.20;;;20.00;62.40;21.20;101407.00;;;;4967309;28;20173;-43
2022/06/10 05:42:11;;;;;;;3.30;2.37;;;20.00;62.30;21.10;101414.00;;;;4969144;28;20227;-42
2022/06/10 05:44:48;;;;;;;3.70;2.30;;;20.00;62.50;21.10;101408.00;;;;4973180;28;20185;-42
2022/06/10 05:47:27;;;;;;;4.13;2.40;;;20.00;62.50;21.10;101411.00;;;;4972198;28;20165;-43
2022/06/10 05:49:56;;;;;;;3.00;2.10;;;20.00;62.50;21.10;101421.00;;;;4966983;28;20745;-43
2022/06/10 05:52:24;;;;;;;2.90;2.30;;;20.00;62.60;21.10;101409.00;;;;4968622;28;20197;-43
2022/06/10 05:54:51;;;;;;;4.40;2.50;;;20.00;62.60;21.10;101423.00;;;;4970623;28;20192;-42
2022/06/10 05:57:17;;;;;;;3.03;2.20;;;20.00;62.60;21.10;101419.00;;;;4972185;28;20169;-44
2022/06/10 05:59:43;;;;;;;2.50;2.20;;;20.00;62.60;21.10;101420.00;;;;4970966;28;20189;-43
2022/06/10 06:02:10;;;;;;;3.30;2.10;;;20.00;62.60;21.10;101420.00;;;;4970514;28;20766;-44
2022/06/10 06:04:36;;;;;;;5.50;2.30;;;20.00;62.60;21.10;101420.00;;;;4970498;28;20243;-46
2022/06/10 06:07:02;;;;;;;2.57;2.30;;;20.00;62.70;21.10;101428.00;;;;4970808;28;20181;-44
2022/06/10 06:09:28;;;;;;;2.50;2.20;;;20.00;62.70;21.10;101426.00;;;;4971710;28;20272;-44
2022/06/10 06:11:56;;;;;;;3.03;2.20;;;20.00;62.70;21.10;101431.00;;;;4970428;28;20200;-43
2022/06/10 06:14:22;;;;;;;3.97;2.37;;;20.00;62.70;21.10;101424.00;;;;4970444;28;20169;-44
2022/06/10 06:16:51;;;;;;;3.63;2.20;;;19.90;62.70;21.10;101427.00;;;;4970420;28;20432;-43
2022/06/10 06:19:17;;;;;;;3.03;2.20;;;20.00;62.90;21.10;101433.00;;;;4970461;28;20634;-45
2022/06/10 06:21:43;;;;;;;2.40;2.20;;;20.00;63.00;21.10;101435.00;;;;4970201;28;20205;-44
2022/06/10 06:24:09;;;;;;;2.20;2.00;;;19.90;62.90;21.10;101434.00;;;;4970168;28;20213;-43
2022/06/10 06:26:35;;;;;;;4.00;2.10;;;20.00;63.00;21.10;101431.00;;;;4970287;28;20757;-44
2022/06/10 06:29:01;;;;;;;3.20;2.20;;;19.90;62.90;21.10;101440.00;;;;4969750;28;20193;-43
2022/06/10 06:31:26;;;;;;;2.63;2.10;;;19.90;62.90;21.10;101437.00;;;;4970180;28;20197;-44
2022/06/10 06:33:52;;;;;;;2.50;2.00;;;20.00;63.00;21.10;101438.00;;;;4970031;28;20173;-44
2022/06/10 06:36:23;;;;;;;2.33;2.10;;;19.90;62.90;21.10;101447.00;;;;4970082;28;20173;-44
2022/06/10 06:38:49;;;;;;;2.43;2.10;;;19.90;63.00;21.10;101445.00;;;;4970435;28;20165;-44
2022/06/10 06:41:15;;;;;;;2.37;2.17;;;19.90;63.00;21.10;101439.00;;;;4969919;28;20545;-45
2022/06/10 06:43:42;;;;;;;2.30;2.10;;;19.90;63.00;21.10;101442.00;;;;4968813;28;20193;-44
2022/06/10 06:46:12;;;;;;;2.53;2.33;;;19.90;63.00;21.10;101443.00;;;;4969463;28;20188;-43
2022/06/10 06:48:38;;;;;;;2.27;2.07;;;19.90;63.00;21.10;101444.00;;;;4968997;28;20240;-44
2022/06/10 06:51:04;;;;;;;2.53;2.00;;;19.90;63.10;21.00;101444.00;;;;4969776;28;20181;-43
2022/06/10 06:53:32;;;;;;;2.37;1.90;;;19.90;63.10;21.00;101446.00;;;;4970022;28;20193;-43
2022/06/10 06:55:58;;;;;;;3.17;2.00;;;19.90;63.10;21.00;101444.00;;;;4969404;28;20180;-43
2022/06/10 06:58:24;;;;;;;2.20;2.00;;;19.90;63.20;21.00;101434.00;;;;4969350;28;20181;-43
2022/06/10 07:00:49;;;;;;;2.33;2.10;;;19.90;63.20;21.00;101450.00;;;;4968275;28;20175;-44
2022/06/10 07:03:15;;;;;;;2.20;2.00;;;19.90;63.20;21.00;101455.00;;;;4916398;28;20208;-43
2022/06/10 07:05:42;;;;;;;3.87;2.10;;;19.90;63.30;21.00;101456.00;;;;4988216;28;20523;-45
2022/06/10 07:08:09;;;;;;;4.07;2.20;;;19.90;63.40;21.00;101460.00;;;;4988787;28;20199;-45
2022/06/10 07:10:35;;;;;;;8.17;2.30;;;19.90;63.30;21.00;101459.00;;;;4987925;28;20169;-43
2022/06/10 07:13:01;;;;;;;5.30;2.33;;;19.90;63.50;21.00;101458.00;;;;4988972;28;20680;-44
2022/06/10 07:15:26;;;;;;;6.33;2.37;;;19.90;63.80;21.00;101455.00;;;;4988227;28;20173;-43
2022/06/10 07:17:52;;;;;;;4.77;2.80;;;19.90;63.90;21.00;101457.00;;;;4988379;28;20643;-45
2022/06/10 07:20:30;;;;;;;5.17;2.33;;;19.90;63.90;21.00;101462.00;;;;4988450;28;20189;-43
2022/06/10 07:22:57;;;;;;;4.20;2.33;;;19.90;63.90;21.00;101466.00;;;;4988714;28;20254;-44
2022/06/10 07:25:23;;;;;;;3.47;2.23;;;19.90;63.90;20.90;101464.00;;;;4988625;28;20295;-44
2022/06/10 07:27:52;;;;;;;4.33;2.40;;;19.90;63.90;21.00;101463.00;;;;4988637;28;20717;-44
2022/06/10 07:30:18;;;;;;;3.20;2.40;;;19.90;64.10;21.00;101471.00;;;;4988398;28;20200;-44
2022/06/10 07:32:44;;;;;;;3.73;2.10;;;19.80;64.00;21.00;101465.00;;;;4988128;28;20283;-44
2022/06/10 07:35:11;;;;;;;4.37;2.50;;;19.90;64.10;21.00;101475.00;;;;4988613;28;20255;-43
2022/06/10 07:37:38;;;;;;;2.67;2.10;;;19.80;64.00;21.00;101468.00;;;;4987063;28;20172;-43
2022/06/10 07:40:04;;;;;;;4.20;2.17;;;19.90;64.20;21.00;101465.00;;;;4986254;28;20664;-44
2022/06/10 07:42:30;;;;;;;5.80;2.50;;;19.90;64.20;21.00;101467.00;;;;4988073;28;20233;-44
2022/06/10 07:44:56;;;;;;;5.97;2.30;;;19.80;64.50;20.90;101468.00;;;;4987780;28;20544;-43
2022/06/10 07:47:22;;;;;;;9.00;2.50;;;19.80;64.50;20.90;101465.00;;;;4987749;28;20177;-44
2022/06/10 07:49:48;;;;;;;7.60;2.47;;;19.90;64.60;20.90;101463.00;;;;4987680;28;20235;-44
2022/06/10 07:52:13;;;;;;;12.53;2.83;;;19.90;64.70;20.90;101471.00;;;;4988143;28;20665;-44
2022/06/10 07:54:39;;;;;;;9.40;3.00;;;19.90;65.00;20.90;101468.00;;;;4987898;28;20204;-44
2022/06/10 07:57:07;;;;;;;4.80;2.40;;;19.90;64.90;20.90;101463.00;;;;4988225;28;20177;-46
2022/06/10 07:59:33;;;;;;;4.97;2.27;;;19.90;64.80;21.00;101458.00;;;;4987889;28;20184;-43
2022/06/10 08:01:59;;;;;;;4.97;2.60;;;19.90;64.70;21.00;101460.00;;;;4989993;28;20247;-42
2022/06/10 08:04:24;;;;;;;8.13;2.70;;;19.90;64.60;21.00;101465.00;;;;4989835;28;20181;-43
2022/06/10 08:06:50;;;;;;;5.53;2.47;;;19.90;64.70;21.00;101463.00;;;;4988281;28;20180;-43
2022/06/10 08:09:20;;;;;;;6.50;2.60;;;19.90;64.60;21.00;101467.00;;;;4987815;28;20578;-43
2022/06/10 08:11:47;;;;;;;4.07;2.17;;;19.90;64.60;21.00;101462.00;;;;4988039;28;20506;-43
2022/06/10 08:14:13;;;;;;;5.73;2.60;;;19.90;64.60;21.00;101467.00;;;;4987872;28;20180;-44
2022/06/10 08:16:39;;;;;;;7.30;2.30;;;19.90;64.60;21.00;101469.00;;;;4987792;28;20169;-43
2022/06/10 08:19:05;;;;;;;3.23;2.40;;;19.90;64.60;21.00;101469.00;;;;4987792;28;20211;-43
2022/06/10 08:24:15;;;;;;;3.60;2.30;;;19.90;64.60;21.00;101478.00;;;;4987956;28;20570;-43
2022/06/10 08:26:41;;;;;;;2.73;2.30;;;19.90;64.60;21.00;101470.00;;;;4987717;28;20176;-44
2022/06/10 08:29:07;;;;;;;3.97;2.20;;;19.90;64.60;21.00;101468.00;;;;4987300;28;20200;-43
2022/06/10 08:31:33;;;;;;;3.87;2.40;;;19.90;64.60;21.00;101474.00;;;;4987685;28;20259;-44
2022/06/10 08:33:59;;;;;;;3.00;2.10;;;19.90;65.40;21.00;101467.00;;;;4987373;28;20183;-44
2022/06/10 08:36:25;;;;;;;4.30;2.30;;;19.90;64.60;21.10;101477.00;;;;4987889;28;20172;-44
2022/06/10 08:38:51;;;;;;;3.60;2.40;;;19.90;64.50;21.10;101468.00;;;;4988799;28;20172;-43
2022/06/10 08:41:50;;;;;;;4.30;2.20;;;20.00;64.70;21.10;101476.00;;;;4987900;28;20834;-43
2022/06/10 08:44:35;;;;;;;3.47;2.30;;;19.90;64.70;21.10;101477.00;;;;4987500;28;20219;-46
2022/06/10 08:47:22;;;;;;;5.57;2.43;;;20.00;64.70;21.10;101478.00;;;;4986136;28;20153;-44
2022/06/10 08:50:57;;;;;;;2.63;2.27;;;20.00;64.80;21.10;101474.00;;;;4987560;28;20206;-44
2022/06/10 08:53:57;;;;;;;2.40;2.20;;;20.00;64.80;21.10;101468.00;;;;4936216;29;20349;-44
2022/06/10 08:56:40;;;;;;;3.07;2.30;;;20.00;64.90;21.10;101468.00;;;;4930501;29;20644;-43
2022/06/10 08:59:29;;;;;;;2.77;2.10;;;20.00;64.90;21.10;101468.00;;;;4959299;28;20203;-45
2022/06/10 09:02:19;;;;;;;2.30;2.10;;;20.00;64.90;21.10;101470.00;;;;4988025;28;20200;-42
2022/06/10 09:05:06;;;;;;;2.90;2.17;;;20.00;65.00;21.10;101456.00;;;;4989954;28;20180;-42
2022/06/10 09:07:58;;;;;;;2.17;2.00;;;20.00;65.10;21.20;101468.00;;;;4989371;28;20173;-42
2022/06/10 09:10:54;;;;;;;2.43;2.13;;;20.00;65.10;21.20;101480.00;;;;4986572;28;20531;-43
2022/06/10 09:13:41;;;;;;;2.60;2.20;;;20.00;65.10;21.20;101473.00;;;;4987095;28;20184;-45
2022/06/10 09:16:35;;;;;;;3.37;2.30;;;20.10;65.20;21.20;101473.00;;;;4986873;28;20166;-43
2022/06/10 09:19:43;;;;;;;3.67;2.30;;;20.10;65.20;21.00;101477.00;;;;4986992;28;20200;-44
2022/06/10 09:22:30;;;;;;;2.93;2.20;;;20.10;65.50;21.30;101471.00;;;;4986126;28;20203;-43
2022/06/10 09:25:12;;;;;;;2.73;2.27;;;20.10;65.50;21.30;101474.00;;;;4985775;28;20161;-42
2022/06/10 09:27:50;;;;;;;3.40;2.30;;;20.10;65.50;21.30;101471.00;;;;4991938;28;20707;-44
2022/06/10 09:30:21;;;;;;;3.37;2.30;;;20.10;65.70;21.30;101465.00;;;;4976135;28;20412;-43
2022/06/10 09:32:59;;;;;;;4.47;2.47;;;20.10;65.60;21.30;101470.00;;;;4990845;28;20203;-44
2022/06/10 09:35:53;;;;;;;3.10;2.20;;;20.10;65.80;21.40;101470.00;;;;4973887;28;20183;-43
2022/06/10 09:38:29;;;;;;;3.27;2.20;;;20.20;65.80;21.30;101472.00;;;;4995109;28;20152;-43
2022/06/10 09:40:55;;;;;;;3.23;2.00;;;20.20;65.90;21.40;101469.00;;;;4996289;28;20176;-43
2022/06/10 09:43:54;;;;;;;2.60;2.10;;;20.20;65.90;21.40;101459.00;;;;4995833;28;20266;-43
2022/06/10 09:46:46;;;;;;;3.13;2.13;;;20.20;66.00;21.40;101475.00;;;;4989520;28;20158;-43
2022/06/10 09:49:47;;;;;;;3.20;2.20;;;20.20;66.00;21.40;101455.00;;;;4988642;28;20202;-43
2022/06/10 09:52:39;;;;;;;3.90;2.23;;;20.20;66.30;21.40;101468.00;;;;4989448;28;20648;-42
2022/06/10 09:55:29;;;;;;;2.63;2.20;;;20.20;66.50;21.40;101472.00;;;;4974594;28;20177;-42
2022/06/10 09:58:03;;;;;;;3.07;2.07;;;20.20;66.40;21.40;101466.00;;;;4990513;28;20607;-44
2022/06/10 10:00:55;;;;;;;2.33;2.00;;;20.30;66.60;21.50;101466.00;;;;4989509;28;20170;-46
2022/06/10 10:03:58;;;;;;;3.30;2.13;;;20.30;66.80;21.50;101417.00;;;;4973033;28;20204;-46
2022/06/10 10:06:42;;;;;;;3.33;2.10;;;20.30;67.00;21.50;101474.00;;;;4989575;28;20263;-44
2022/06/10 10:09:47;;;;;;;3.13;2.13;;;20.30;66.90;21.50;101462.00;;;;4972820;28;20204;-43
2022/06/10 10:12:38;;;;;;;4.13;2.20;;;20.40;67.00;21.50;101460.00;;;;4970410;28;20262;-45
2022/06/10 10:15:19;;;;;;;4.00;2.33;;;20.30;67.00;21.50;101460.00;;;;4970265;28;20494;-44
2022/06/10 10:18:33;;;;;;;6.03;2.30;;;20.30;66.90;21.50;101459.00;;;;4969608;28;20352;-45
2022/06/10 10:21:11;;;;;;;2.37;2.17;;;20.40;67.10;21.50;101458.00;;;;4979239;28;20197;-45
2022/06/10 10:23:51;;;;;;;5.43;2.23;;;20.40;66.90;21.50;101450.00;;;;4984550;28;20558;-45
2022/06/10 10:26:23;;;;;;;4.20;2.23;;;20.40;67.20;21.50;101461.00;;;;4989442;28;20252;-43
2022/06/10 10:28:55;;;;;;;2.47;2.10;;;20.40;67.10;21.60;101453.00;;;;4989507;28;20231;-44
2022/06/10 10:31:27;;;;;;;2.97;2.13;;;20.40;67.10;21.60;101458.00;;;;4971184;28;20183;-44
2022/06/10 10:33:53;;;;;;;3.47;2.10;;;20.50;67.20;21.60;101457.00;;;;4998090;28;20202;-44
2022/06/10 10:36:32;;;;;;;3.17;2.13;;;20.50;67.20;21.60;101457.00;;;;5012268;28;20634;-43
2022/06/10 10:39:12;;;;;;;2.57;2.10;;;20.50;67.20;21.60;101448.00;;;;5011161;28;20592;-44
2022/06/10 10:41:42;;;;;;;3.07;2.20;;;20.50;67.20;21.70;101448.00;;;;5010814;28;20254;-45
2022/06/10 10:44:26;;;;;;;3.23;2.10;;;20.50;67.20;21.70;101439.00;;;;4994453;28;20249;-44
2022/06/10 10:47:09;;;;;;;6.07;2.07;;;20.50;67.20;21.70;101454.00;;;;5011241;28;20253;-44
2022/06/10 10:49:46;;;;;;;5.60;2.47;;;20.60;67.30;21.70;101437.00;;;;5011365;28;20205;-43
2022/06/10 10:52:30;;;;;;;7.00;2.40;;;20.60;67.30;21.70;101451.00;;;;5009885;28;20210;-44
2022/06/10 10:55:18;;;;;;;4.43;2.23;;;20.60;67.00;21.70;101450.00;;;;5009858;28;20200;-43
2022/06/10 10:58:21;;;;;;;3.53;2.10;;;20.60;67.10;21.80;101439.00;;;;5009676;28;20508;-44
2022/06/10 11:00:58;;;;;;;2.30;1.80;;;20.70;67.20;21.80;101441.00;;;;4981963;28;20717;-43
2022/06/10 11:03:44;;;;;;;4.27;2.10;;;20.70;67.40;21.60;101407.00;;;;4972055;28;20294;-45
2022/06/10 11:06:26;;;;;;;2.93;2.00;;;20.70;67.40;21.80;101439.00;;;;4906348;28;20650;-43
2022/06/10 11:09:22;;;;;;;6.33;2.10;;;20.70;67.40;21.90;101433.00;;;;4992159;28;20728;-43
2022/06/10 11:11:47;;;;;;;2.93;1.90;;;20.70;67.50;21.90;101431.00;;;;4989638;28;20214;-44
2022/06/10 11:14:35;;;;;;;3.27;2.00;;;20.80;67.50;21.90;101427.00;;;;4990319;28;20571;-44
2022/06/10 11:17:11;;;;;;;4.70;2.17;;;20.80;68.30;21.80;101445.00;;;;4991500;28;20559;-43
2022/06/10 11:19:37;;;;;;;3.83;2.10;;;20.80;67.50;21.90;101431.00;;;;4991843;28;20172;-45
2022/06/10 11:22:23;;;;;;;7.40;2.00;;;20.90;67.50;21.90;101427.00;;;;4990979;28;20273;-43
2022/06/10 11:25:01;;;;;;;4.97;1.97;;;20.90;67.30;22.00;101434.00;;;;4991334;28;20183;-46
2022/06/10 11:27:38;;;;;;;2.83;1.70;;;20.90;67.20;22.00;101430.00;;;;4974952;28;20166;-44
2022/06/10 11:30:10;;;;;;;3.57;2.00;;;21.00;67.20;22.00;101435.00;;;;4989324;28;20210;-44